sensor_id;sensor_type;location;lat;lon;timestamp;pressure;altitude;pressure_sealevel;temperature;humidity
10060;BME280;5069;49.306;8.636;2022-12-18T00:02:27;101879.00;;;-6.72;100.00
10060;BME280;5069;49.306;8.636;2022-12-18T00:05:29;101876.53;;;-6.56;100.00
10060;BME280;5069;49.306;8.636;2022-12-18T00:08:30;101880.06;;;-6.54;100.00
10060;BME280;5069;49.306;8.636;2022-12-18T00:11:33;101875.66;;;-6.56;100.00
10060;BME280;5069;49.306;8.636;2022-12-18T00:14:34;101874.91;;;-6.54;100.00
10060;BME280;5069;49.306;8.636;2022-12-18T00:17:36;101875.66;;;-6.56;100.00
10060;BME280;5069;49.306;8.636;2022-12-18T00:20:39;101880.22;;;-6.65;100.00
10060;BME280;5069;49.306;8.636;2022-12-18T00:23:42;101878.63;;;-6.63;100.00
10060;BME280;5069;49.306;8.636;2022-12-18T00:26:44;101887.13;;;-6.64;100.00
10060;BME280;5069;49.306;8.636;2022-12-18T00:29:48;101883.66;;;-6.65;100.00
10060;BME280;5069;49.306;8.636;2022-12-18T00:32:49;101879.53;;;-6.63;100.00
10060;BME280;5069;49.306;8.636;2022-12-18T00:35:51;101873.59;;;-6.62;100.00
10060;BME280;5069;49.306;8.636;2022-12-18T00:38:53;101879.16;;;-6.54;100.00
10060;BME280;5069;49.306;8.636;2022-12-18T00:41:55;101883.97;;;-6.46;100.00
10060;BME280;5069;49.306;8.636;2022-12-18T00:45:15;101885.00;;;-6.57;100.00
10060;BME280;5069;49.306;8.636;2022-12-18T00:48:17;101876.53;;;-6.56;100.00
10060;BME280;5069;49.306;8.636;2022-12-18T00:51:18;101878.09;;;-6.58;100.00
10060;BME280;5069;49.306;8.636;2022-12-18T00:54:19;101889.16;;;-6.59;100.00
10060;BME280;5069;49.306;8.636;2022-12-18T00:57:21;101894.03;;;-6.49;100.00
10060;BME280;5069;49.306;8.636;2022-12-18T01:00:22;101888.72;;;-6.37;100.00
10060;BME280;5069;49.306;8.636;2022-12-18T01:03:24;101886.25;;;-6.36;100.00
10060;BME280;5069;49.306;8.636;2022-12-18T01:06:25;101891.75;;;-6.44;100.00
10060;BME280;5069;49.306;8.636;2022-12-18T01:09:27;101889.44;;;-6.40;100.00
10060;BME280;5069;49.306;8.636;2022-12-18T01:12:28;101879.59;;;-6.32;100.00
10060;BME280;5069;49.306;8.636;2022-12-18T01:15:30;101883.34;;;-6.27;100.00
10060;BME280;5069;49.306;8.636;2022-12-18T01:18:31;101885.38;;;-6.21;100.00
10060;BME280;5069;49.306;8.636;2022-12-18T01:21:33;101892.63;;;-6.29;100.00
10060;BME280;5069;49.306;8.636;2022-12-18T01:24:37;101883.25;;;-6.29;100.00
10060;BME280;5069;49.306;8.636;2022-12-18T01:27:39;101875.53;;;-6.43;100.00
10060;BME280;5069;49.306;8.636;2022-12-18T01:30:40;101880.22;;;-6.65;100.00
10060;BME280;5069;49.306;8.636;2022-12-18T01:33:42;101880.25;;;-6.51;100.00
10060;BME280;5069;49.306;8.636;2022-12-18T01:36:44;101889.09;;;-6.46;100.00
10060;BME280;5069;49.306;8.636;2022-12-18T01:39:45;101884.75;;;-6.47;100.00
10060;BME280;5069;49.306;8.636;2022-12-18T01:42:53;101877.25;;;-6.44;100.00
10060;BME280;5069;49.306;8.636;2022-12-18T01:45:59;101875.09;;;-6.36;100.00
10060;BME280;5069;49.306;8.636;2022-12-18T01:49:01;101857.94;;;-6.37;100.00
10060;BME280;5069;49.306;8.636;2022-12-18T01:52:03;101864.84;;;-6.36;100.00
10060;BME280;5069;49.306;8.636;2022-12-18T01:55:06;101872.44;;;-6.38;100.00
10060;BME280;5069;49.306;8.636;2022-12-18T01:58:07;101882.38;;;-6.44;100.00
10060;BME280;5069;49.306;8.636;2022-12-18T02:01:09;101882.53;;;-6.41;100.00
10060;BME280;5069;49.306;8.636;2022-12-18T02:04:29;101881.91;;;-6.37;100.00
10060;BME280;5069;49.306;8.636;2022-12-18T02:08:06;101883.06;;;-6.61;100.00
10060;BME280;5069;49.306;8.636;2022-12-18T02:11:32;101874.03;;;-6.54;100.00
10060;BME280;5069;49.306;8.636;2022-12-18T02:18:05;101872.34;;;-6.54;100.00
10060;BME280;5069;49.306;8.636;2022-12-18T02:27:44;101889.41;;;-6.54;100.00
10060;BME280;5069;49.306;8.636;2022-12-18T02:30:49;101893.44;;;-6.45;100.00
10060;BME280;5069;49.306;8.636;2022-12-18T02:33:56;101894.03;;;-6.49;100.00
10060;BME280;5069;49.306;8.636;2022-12-18T02:37:02;101890.88;;;-6.45;100.00
10060;BME280;5069;49.306;8.636;2022-12-18T02:40:08;101906.06;;;-6.62;100.00
10060;BME280;5069;49.306;8.636;2022-12-18T02:43:14;101895.91;;;-6.61;100.00
10060;BME280;5069;49.306;8.636;2022-12-18T02:56:51;101872.44;;;-6.67;100.00
10060;BME280;5069;49.306;8.636;2022-12-18T03:00:13;101882.09;;;-6.63;100.00
10060;BME280;5069;49.306;8.636;2022-12-18T03:06:42;101874.19;;;-6.66;100.00
10060;BME280;5069;49.306;8.636;2022-12-18T03:09:48;101879.84;;;-6.72;100.00
10060;BME280;5069;49.306;8.636;2022-12-18T03:13:02;101879.69;;;-6.60;100.00
10060;BME280;5069;49.306;8.636;2022-12-18T03:16:09;101877.47;;;-6.69;100.00
10060;BME280;5069;49.306;8.636;2022-12-18T03:19:15;101885.97;;;-6.84;100.00
10060;BME280;5069;49.306;8.636;2022-12-18T03:22:18;101871.63;;;-6.95;100.00
10060;BME280;5069;49.306;8.636;2022-12-18T03:25:25;101870.13;;;-6.77;100.00
10060;BME280;5069;49.306;8.636;2022-12-18T03:28:30;101860.06;;;-6.59;100.00
10060;BME280;5069;49.306;8.636;2022-12-18T03:31:40;101863.09;;;-6.52;100.00
10060;BME280;5069;49.306;8.636;2022-12-18T03:34:44;101886.78;;;-6.56;100.00
10060;BME280;5069;49.306;8.636;2022-12-18T03:37:50;101889.84;;;-6.76;100.00
10060;BME280;5069;49.306;8.636;2022-12-18T03:44:34;101885.34;;;-6.80;100.00
10060;BME280;5069;49.306;8.636;2022-12-18T03:47:58;101878.25;;;-6.84;100.00
10060;BME280;5069;49.306;8.636;2022-12-18T03:51:11;101883.38;;;-6.84;100.00
10060;BME280;5069;49.306;8.636;2022-12-18T03:54:16;101880.66;;;-6.73;100.00
10060;BME280;5069;49.306;8.636;2022-12-18T03:57:28;101880.63;;;-6.87;100.00
10060;BME280;5069;49.306;8.636;2022-12-18T04:00:32;101893.06;;;-6.93;100.00
10060;BME280;5069;49.306;8.636;2022-12-18T04:03:42;101881.03;;;-6.94;100.00
10060;BME280;5069;49.306;8.636;2022-12-18T04:06:47;101876.28;;;-6.88;100.00
10060;BME280;5069;49.306;8.636;2022-12-18T04:09:54;101879.16;;;-6.84;100.00
10060;BME280;5069;49.306;8.636;2022-12-18T04:12:58;101877.13;;;-6.75;100.00
10060;BME280;5069;49.306;8.636;2022-12-18T04:16:01;101881.47;;;-6.74;100.00
10060;BME280;5069;49.306;8.636;2022-12-18T04:19:03;101888.69;;;-6.81;100.00
10060;BME280;5069;49.306;8.636;2022-12-18T04:22:11;101871.41;;;-6.98;100.00
10060;BME280;5069;49.306;8.636;2022-12-18T04:25:17;101872.69;;;-7.20;100.00
10060;BME280;5069;49.306;8.636;2022-12-18T04:28:39;101869.75;;;-7.26;100.00
10060;BME280;5069;49.306;8.636;2022-12-18T04:31:40;101870.75;;;-7.24;100.00
10060;BME280;5069;49.306;8.636;2022-12-18T04:34:43;101882.97;;;-7.33;100.00
10060;BME280;5069;49.306;8.636;2022-12-18T04:37:45;101867.50;;;-7.34;100.00
10060;BME280;5069;49.306;8.636;2022-12-18T04:40:46;101869.25;;;-7.33;100.00
10060;BME280;5069;49.306;8.636;2022-12-18T04:43:55;101870.75;;;-7.24;100.00
10060;BME280;5069;49.306;8.636;2022-12-18T04:46:57;101876.03;;;-7.21;100.00
10060;BME280;5069;49.306;8.636;2022-12-18T04:49:58;101870.88;;;-7.07;100.00
10060;BME280;5069;49.306;8.636;2022-12-18T04:52:59;101863.72;;;-6.98;100.00
10060;BME280;5069;49.306;8.636;2022-12-18T04:56:12;101868.69;;;-7.01;100.00
10060;BME280;5069;49.306;8.636;2022-12-18T04:59:14;101864.44;;;-7.01;100.00
10060;BME280;5069;49.306;8.636;2022-12-18T05:02:15;101873.19;;;-6.97;100.00
10060;BME280;5069;49.306;8.636;2022-12-18T05:05:17;101879.47;;;-6.92;100.00
10060;BME280;5069;49.306;8.636;2022-12-18T05:08:19;101874.75;;;-6.99;100.00
10060;BME280;5069;49.306;8.636;2022-12-18T05:11:21;101886.41;;;-7.04;100.00
10060;BME280;5069;49.306;8.636;2022-12-18T05:14:22;101895.50;;;-7.10;100.00
10060;BME280;5069;49.306;8.636;2022-12-18T05:17:24;101903.09;;;-7.11;100.00
10060;BME280;5069;49.306;8.636;2022-12-18T05:20:26;101888.81;;;-7.07;100.00
10060;BME280;5069;49.306;8.636;2022-12-18T05:23:28;101891.75;;;-7.01;100.00
10060;BME280;5069;49.306;8.636;2022-12-18T05:26:31;101901.38;;;-6.97;100.00
10060;BME280;5069;49.306;8.636;2022-12-18T05:29:32;101910.94;;;-6.95;100.00
10060;BME280;5069;49.306;8.636;2022-12-18T05:32:34;101912.41;;;-6.98;100.00
10060;BME280;5069;49.306;8.636;2022-12-18T05:35:35;101908.06;;;-6.99;100.00
10060;BME280;5069;49.306;8.636;2022-12-18T05:38:38;101902.69;;;-7.04;100.00
10060;BME280;5069;49.306;8.636;2022-12-18T05:41:40;101889.56;;;-6.95;100.00
10060;BME280;5069;49.306;8.636;2022-12-18T05:44:43;101881.56;;;-6.72;100.00
10060;BME280;5069;49.306;8.636;2022-12-18T05:47:44;101878.31;;;-6.40;100.00
10060;BME280;5069;49.306;8.636;2022-12-18T05:50:47;101873.00;;;-6.29;100.00
10060;BME280;5069;49.306;8.636;2022-12-18T05:53:49;101863.25;;;-6.19;100.00
10060;BME280;5069;49.306;8.636;2022-12-18T05:56:50;101872.81;;;-6.17;100.00
10060;BME280;5069;49.306;8.636;2022-12-18T05:59:52;101869.34;;;-6.17;100.00
10060;BME280;5069;49.306;8.636;2022-12-18T06:02:53;101869.69;;;-6.11;100.00
10060;BME280;5069;49.306;8.636;2022-12-18T06:05:55;101876.13;;;-6.03;100.00
10060;BME280;5069;49.306;8.636;2022-12-18T06:08:57;101879.59;;;-6.03;100.00
10060;BME280;5069;49.306;8.636;2022-12-18T06:11:59;101874.03;;;-6.10;100.00
10060;BME280;5069;49.306;8.636;2022-12-18T06:15:00;101898.38;;;-6.04;100.00
10060;BME280;5069;49.306;8.636;2022-12-18T06:18:02;101904.28;;;-5.90;100.00
10060;BME280;5069;49.306;8.636;2022-12-18T06:21:04;101907.13;;;-6.00;100.00
10060;BME280;5069;49.306;8.636;2022-12-18T06:24:05;101902.69;;;-6.03;100.00
10060;BME280;5069;49.306;8.636;2022-12-18T06:27:07;101913.41;;;-5.95;100.00
10060;BME280;5069;49.306;8.636;2022-12-18T06:30:09;101910.69;;;-5.98;100.00
10060;BME280;5069;49.306;8.636;2022-12-18T06:33:11;101920.47;;;-5.91;100.00
10060;BME280;5069;49.306;8.636;2022-12-18T06:36:13;101917.22;;;-5.89;100.00
10060;BME280;5069;49.306;8.636;2022-12-18T06:39:15;101919.88;;;-5.87;100.00
10060;BME280;5069;49.306;8.636;2022-12-18T06:42:16;101914.41;;;-5.93;100.00
10060;BME280;5069;49.306;8.636;2022-12-18T06:45:18;101912.63;;;-5.94;100.00
10060;BME280;5069;49.306;8.636;2022-12-18T06:48:19;101916.34;;;-6.04;100.00
10060;BME280;5069;49.306;8.636;2022-12-18T06:51:23;101918.19;;;-6.01;100.00
10060;BME280;5069;49.306;8.636;2022-12-18T06:54:24;101926.88;;;-5.99;100.00
10060;BME280;5069;49.306;8.636;2022-12-18T06:57:26;101929.72;;;-5.95;100.00
10060;BME280;5069;49.306;8.636;2022-12-18T07:00:27;101931.81;;;-6.02;100.00
10060;BME280;5069;49.306;8.636;2022-12-18T07:03:29;101929.25;;;-6.02;100.00
10060;BME280;5069;49.306;8.636;2022-12-18T07:06:31;101934.59;;;-5.99;100.00
10060;BME280;5069;49.306;8.636;2022-12-18T07:09:32;101932.97;;;-5.97;100.00
10060;BME280;5069;49.306;8.636;2022-12-18T07:12:34;101939.72;;;-5.99;100.00
10060;BME280;5069;49.306;8.636;2022-12-18T07:15:36;101943.88;;;-6.01;100.00
10060;BME280;5069;49.306;8.636;2022-12-18T07:18:38;101946.53;;;-6.00;100.00
10060;BME280;5069;49.306;8.636;2022-12-18T07:21:39;101943.25;;;-5.97;100.00
10060;BME280;5069;49.306;8.636;2022-12-18T07:24:40;101951.38;;;-5.90;100.00
10060;BME280;5069;49.306;8.636;2022-12-18T07:27:42;101947.47;;;-5.83;100.00
10060;BME280;5069;49.306;8.636;2022-12-18T07:30:44;101952.69;;;-5.81;100.00
10060;BME280;5069;49.306;8.636;2022-12-18T07:33:45;101953.59;;;-5.81;100.00
10060;BME280;5069;49.306;8.636;2022-12-18T07:36:47;101957.53;;;-5.86;100.00
10060;BME280;5069;49.306;8.636;2022-12-18T07:39:48;101967.50;;;-5.92;100.00
10060;BME280;5069;49.306;8.636;2022-12-18T07:42:51;101972.94;;;-5.86;100.00
10060;BME280;5069;49.306;8.636;2022-12-18T07:45:53;101964.16;;;-5.75;100.00
10060;BME280;5069;49.306;8.636;2022-12-18T07:48:54;101965.59;;;-5.80;100.00
10060;BME280;5069;49.306;8.636;2022-12-18T07:51:57;101971.38;;;-5.84;100.00
10060;BME280;5069;49.306;8.636;2022-12-18T07:54:58;101961.09;;;-5.84;100.00
10060;BME280;5069;49.306;8.636;2022-12-18T07:58:01;101969.00;;;-5.81;100.00
10060;BME280;5069;49.306;8.636;2022-12-18T08:01:08;101978.28;;;-5.83;100.00
10060;BME280;5069;49.306;8.636;2022-12-18T08:04:11;101972.81;;;-5.89;100.00
10060;BME280;5069;49.306;8.636;2022-12-18T08:07:13;101969.47;;;-5.88;100.00
10060;BME280;5069;49.306;8.636;2022-12-18T08:10:15;101969.59;;;-5.85;100.00
10060;BME280;5069;49.306;8.636;2022-12-18T08:13:16;101970.13;;;-5.76;100.00
10060;BME280;5069;49.306;8.636;2022-12-18T08:16:18;101967.09;;;-5.69;100.00
10060;BME280;5069;49.306;8.636;2022-12-18T08:19:21;101966.47;;;-5.79;100.00
10060;BME280;5069;49.306;8.636;2022-12-18T08:22:22;101968.31;;;-5.62;100.00
10060;BME280;5069;49.306;8.636;2022-12-18T08:25:23;101964.25;;;-5.73;100.00
10060;BME280;5069;49.306;8.636;2022-12-18T08:28:25;101966.19;;;-5.69;100.00
10060;BME280;5069;49.306;8.636;2022-12-18T08:31:28;101961.94;;;-5.69;100.00
10060;BME280;5069;49.306;8.636;2022-12-18T08:34:30;101964.63;;;-5.67;100.00
10060;BME280;5069;49.306;8.636;2022-12-18T08:37:32;101967.09;;;-5.69;100.00
10060;BME280;5069;49.306;8.636;2022-12-18T08:40:33;101960.97;;;-5.56;100.00
10060;BME280;5069;49.306;8.636;2022-12-18T08:43:35;101958.03;;;-5.62;100.00
10060;BME280;5069;49.306;8.636;2022-12-18T08:47:04;101942.88;;;-5.58;100.00
10060;BME280;5069;49.306;8.636;2022-12-18T08:50:05;101947.41;;;-5.54;99.83
10060;BME280;5069;49.306;8.636;2022-12-18T08:53:07;101950.34;;;-5.48;100.00
10060;BME280;5069;49.306;8.636;2022-12-18T08:56:08;101947.91;;;-5.45;99.58
10060;BME280;5069;49.306;8.636;2022-12-18T08:59:10;101933.53;;;-5.41;99.83
10060;BME280;5069;49.306;8.636;2022-12-18T09:02:19;101926.59;;;-5.27;99.09
10060;BME280;5069;49.306;8.636;2022-12-18T09:05:21;101923.03;;;-5.29;98.43
10060;BME280;5069;49.306;8.636;2022-12-18T09:08:23;101904.78;;;-5.19;98.13
10060;BME280;5069;49.306;8.636;2022-12-18T09:11:26;101903.56;;;-5.26;98.16
10060;BME280;5069;49.306;8.636;2022-12-18T09:14:29;101903.00;;;-5.20;98.63
10060;BME280;5069;49.306;8.636;2022-12-18T09:17:30;101906.94;;;-5.11;97.91
10060;BME280;5069;49.306;8.636;2022-12-18T09:20:32;101911.94;;;-4.97;96.80
10060;BME280;5069;49.306;8.636;2022-12-18T09:23:33;101917.78;;;-5.00;96.80
10060;BME280;5069;49.306;8.636;2022-12-18T09:26:35;101903.66;;;-4.92;97.35
10060;BME280;5069;49.306;8.636;2022-12-18T09:29:37;101898.66;;;-4.89;97.34
10060;BME280;5069;49.306;8.636;2022-12-18T09:32:39;101903.19;;;-4.85;96.87
10060;BME280;5069;49.306;8.636;2022-12-18T09:35:42;101910.81;;;-4.86;97.25
10060;BME280;5069;49.306;8.636;2022-12-18T09:38:44;101930.25;;;-4.75;97.18
10060;BME280;5069;49.306;8.636;2022-12-18T09:41:54;101938.38;;;-4.68;96.07
10060;BME280;5069;49.306;8.636;2022-12-18T09:44:58;101928.22;;;-4.48;95.74
10060;BME280;5069;49.306;8.636;2022-12-18T09:48:00;101940.38;;;-4.46;95.27
10060;BME280;5069;49.306;8.636;2022-12-18T09:51:17;101940.44;;;-4.28;94.72
10060;BME280;5069;49.306;8.636;2022-12-18T09:54:24;101961.66;;;-4.16;94.00
10060;BME280;5069;49.306;8.636;2022-12-18T09:57:29;101977.69;;;-4.04;92.57
10060;BME280;5069;49.306;8.636;2022-12-18T10:00:32;101977.69;;;-3.88;90.64
10060;BME280;5069;49.306;8.636;2022-12-18T10:03:34;101979.41;;;-3.70;90.15
10060;BME280;5069;49.306;8.636;2022-12-18T10:06:44;101979.16;;;-3.57;89.31
10060;BME280;5069;49.306;8.636;2022-12-18T10:10:33;101961.28;;;-3.54;89.49
10060;BME280;5069;49.306;8.636;2022-12-18T10:13:50;101959.44;;;-3.39;88.67
10060;BME280;5069;49.306;8.636;2022-12-18T10:20:34;101944.22;;;-3.15;87.46
10060;BME280;5069;49.306;8.636;2022-12-18T10:27:04;101952.94;;;-3.13;85.47
10060;BME280;5069;49.306;8.636;2022-12-18T10:30:20;101961.69;;;-3.10;86.11
10060;BME280;5069;49.306;8.636;2022-12-18T10:33:24;101962.50;;;-3.11;85.68
10060;BME280;5069;49.306;8.636;2022-12-18T10:36:25;101954.31;;;-3.02;86.29
10060;BME280;5069;49.306;8.636;2022-12-18T10:39:27;101956.41;;;-2.94;85.65
10060;BME280;5069;49.306;8.636;2022-12-18T10:42:28;101944.63;;;-2.69;86.41
10060;BME280;5069;49.306;8.636;2022-12-18T10:45:30;101937.97;;;-2.64;85.60
10060;BME280;5069;49.306;8.636;2022-12-18T10:48:33;101928.72;;;-2.40;84.53
10060;BME280;5069;49.306;8.636;2022-12-18T10:51:36;101928.13;;;-2.33;83.32
10060;BME280;5069;49.306;8.636;2022-12-18T10:54:38;101913.22;;;-2.40;83.90
10060;BME280;5069;49.306;8.636;2022-12-18T10:57:40;101922.50;;;-2.43;84.14
10060;BME280;5069;49.306;8.636;2022-12-18T11:00:42;101926.69;;;-2.47;83.89
10060;BME280;5069;49.306;8.636;2022-12-18T11:03:46;101921.44;;;-2.48;83.67
10060;BME280;5069;49.306;8.636;2022-12-18T11:10:01;101932.63;;;-2.29;84.16
10060;BME280;5069;49.306;8.636;2022-12-18T11:13:11;101931.94;;;-2.04;83.80
10060;BME280;5069;49.306;8.636;2022-12-18T11:16:19;101927.09;;;-1.96;82.39
10060;BME280;5069;49.306;8.636;2022-12-18T11:22:37;101932.38;;;-1.52;80.59
10060;BME280;5069;49.306;8.636;2022-12-18T11:25:39;101930.09;;;-1.65;80.33
10060;BME280;5069;49.306;8.636;2022-12-18T11:28:52;101935.06;;;-1.71;80.83
10060;BME280;5069;49.306;8.636;2022-12-18T11:32:36;101935.91;;;-1.50;81.09
10060;BME280;5069;49.306;8.636;2022-12-18T11:35:51;101932.03;;;-1.39;79.71
10060;BME280;5069;49.306;8.636;2022-12-18T11:38:53;101925.66;;;-1.26;80.39
10060;BME280;5069;49.306;8.636;2022-12-18T11:42:04;101915.94;;;-1.32;79.98
10060;BME280;5069;49.306;8.636;2022-12-18T11:48:36;101923.09;;;-1.25;79.86
10060;BME280;5069;49.306;8.636;2022-12-18T11:52:40;101908.84;;;-1.13;80.12
10060;BME280;5069;49.306;8.636;2022-12-18T11:55:37;101901.00;;;-1.16;80.64
10060;BME280;5069;49.306;8.636;2022-12-18T11:58:57;101887.16;;;-1.17;80.64
10060;BME280;5069;49.306;8.636;2022-12-18T12:02:32;101885.09;;;-1.03;80.46
10060;BME280;5069;49.306;8.636;2022-12-18T12:06:00;101889.53;;;-0.77;79.38
10060;BME280;5069;49.306;8.636;2022-12-18T12:26:14;101882.84;;;-0.94;80.89
10060;BME280;5069;49.306;8.636;2022-12-18T12:39:18;101881.91;;;-0.96;81.48
10060;BME280;5069;49.306;8.636;2022-12-18T12:42:35;101880.25;;;-0.94;81.96
10060;BME280;5069;49.306;8.636;2022-12-18T12:46:04;101876.47;;;-0.80;80.93
10060;BME280;5069;49.306;8.636;2022-12-18T12:49:13;101872.94;;;-0.82;80.99
10060;BME280;5069;49.306;8.636;2022-12-18T12:55:37;101858.34;;;-0.80;82.16
10060;BME280;5069;49.306;8.636;2022-12-18T13:05:54;101857.19;;;-0.88;83.29
10060;BME280;5069;49.306;8.636;2022-12-18T13:09:00;101841.06;;;-0.81;82.87
10060;BME280;5069;49.306;8.636;2022-12-18T13:12:03;101840.69;;;-0.90;83.88
10060;BME280;5069;49.306;8.636;2022-12-18T13:15:31;101832.94;;;-0.90;84.11
10060;BME280;5069;49.306;8.636;2022-12-18T13:18:48;101833.72;;;-0.93;84.43
10060;BME280;5069;49.306;8.636;2022-12-18T13:21:55;101828.78;;;-0.87;83.91
10060;BME280;5069;49.306;8.636;2022-12-18T13:24:57;101820.81;;;-0.91;84.72
10060;BME280;5069;49.306;8.636;2022-12-18T13:28:10;101814.13;;;-0.86;84.88
10060;BME280;5069;49.306;8.636;2022-12-18T13:31:13;101816.97;;;-0.78;83.84
10060;BME280;5069;49.306;8.636;2022-12-18T13:34:27;101805.50;;;-0.85;84.69
10060;BME280;5069;49.306;8.636;2022-12-18T13:43:44;101809.16;;;-0.80;84.01
10060;BME280;5069;49.306;8.636;2022-12-18T13:46:48;101802.22;;;-0.81;84.71
10060;BME280;5069;49.306;8.636;2022-12-18T13:49:51;101799.66;;;-0.79;84.57
10060;BME280;5069;49.306;8.636;2022-12-18T13:52:53;101798.47;;;-0.89;84.52
10060;BME280;5069;49.306;8.636;2022-12-18T13:55:55;101802.75;;;-0.90;84.73
10060;BME280;5069;49.306;8.636;2022-12-18T13:59:16;101800.31;;;-0.85;84.62
10060;BME280;5069;49.306;8.636;2022-12-18T14:02:24;101806.06;;;-0.94;84.85
10060;BME280;5069;49.306;8.636;2022-12-18T14:05:34;101804.38;;;-0.93;85.20
10060;BME280;5069;49.306;8.636;2022-12-18T14:08:40;101808.50;;;-0.98;85.28
10060;BME280;5069;49.306;8.636;2022-12-18T14:11:48;101810.72;;;-1.09;86.02
10060;BME280;5069;49.306;8.636;2022-12-18T14:14:52;101817.47;;;-1.12;86.96
10060;BME280;5069;49.306;8.636;2022-12-18T14:18:24;101824.19;;;-1.17;86.91
10060;BME280;5069;49.306;8.636;2022-12-18T14:21:30;101814.56;;;-1.21;87.68
10060;BME280;5069;49.306;8.636;2022-12-18T14:24:33;101807.84;;;-1.16;87.76
10060;BME280;5069;49.306;8.636;2022-12-18T14:27:37;101810.19;;;-1.22;87.35
10060;BME280;5069;49.306;8.636;2022-12-18T14:30:44;101815.16;;;-1.29;88.68
10060;BME280;5069;49.306;8.636;2022-12-18T14:33:46;101810.97;;;-1.25;88.79
10060;BME280;5069;49.306;8.636;2022-12-18T14:36:53;101805.84;;;-1.23;88.05
10060;BME280;5069;49.306;8.636;2022-12-18T14:39:59;101810.19;;;-1.22;88.48
10060;BME280;5069;49.306;8.636;2022-12-18T14:43:11;101807.53;;;-1.26;88.79
10060;BME280;5069;49.306;8.636;2022-12-18T14:46:33;101809.91;;;-1.30;89.63
10060;BME280;5069;49.306;8.636;2022-12-18T14:49:36;101811.38;;;-1.37;90.68
10060;BME280;5069;49.306;8.636;2022-12-18T14:52:38;101809.53;;;-1.41;90.33
10060;BME280;5069;49.306;8.636;2022-12-18T14:55:46;101811.34;;;-1.38;90.76
10060;BME280;5069;49.306;8.636;2022-12-18T14:59:15;101818.72;;;-1.49;90.95
10060;BME280;5069;49.306;8.636;2022-12-18T15:02:28;101810.50;;;-1.61;92.45
10060;BME280;5069;49.306;8.636;2022-12-18T15:05:31;101796.03;;;-1.56;92.32
10060;BME280;5069;49.306;8.636;2022-12-18T15:08:36;101786.72;;;-1.51;92.46
10060;BME280;5069;49.306;8.636;2022-12-18T15:14:42;101800.97;;;-1.62;93.05
10060;BME280;5069;49.306;8.636;2022-12-18T15:17:44;101787.63;;;-1.73;93.72
10060;BME280;5069;49.306;8.636;2022-12-18T15:20:48;101774.78;;;-1.71;93.43
10060;BME280;5069;49.306;8.636;2022-12-18T15:23:51;101777.38;;;-1.71;93.57
10060;BME280;5069;49.306;8.636;2022-12-18T15:26:53;101770.41;;;-1.72;94.02
10060;BME280;5069;49.306;8.636;2022-12-18T15:33:26;101784.63;;;-1.83;95.78
10060;BME280;5069;49.306;8.636;2022-12-18T15:36:27;101775.69;;;-1.91;96.42
10060;BME280;5069;49.306;8.636;2022-12-18T15:39:30;101770.44;;;-1.94;96.65
10060;BME280;5069;49.306;8.636;2022-12-18T15:42:32;101766.81;;;-1.76;95.99
10060;BME280;5069;49.306;8.636;2022-12-18T15:45:52;101770.06;;;-1.81;96.06
10060;BME280;5069;49.306;8.636;2022-12-18T15:48:55;101775.75;;;-1.90;97.16
10060;BME280;5069;49.306;8.636;2022-12-18T15:52:03;101773.19;;;-1.90;97.56
10060;BME280;5069;49.306;8.636;2022-12-18T15:55:09;101775.94;;;-1.85;97.44
10060;BME280;5069;49.306;8.636;2022-12-18T15:58:30;101772.47;;;-1.86;97.78
10060;BME280;5069;49.306;8.636;2022-12-18T16:01:31;101775.84;;;-1.88;97.49
10060;BME280;5069;49.306;8.636;2022-12-18T16:04:33;101770.75;;;-1.85;97.63
10060;BME280;5069;49.306;8.636;2022-12-18T16:07:34;101769.22;;;-1.80;97.58
10060;BME280;5069;49.306;8.636;2022-12-18T16:10:36;101771.09;;;-1.76;97.13
10060;BME280;5069;49.306;8.636;2022-12-18T16:13:37;101774.53;;;-1.77;97.74
10060;BME280;5069;49.306;8.636;2022-12-18T16:16:39;101769.22;;;-1.80;98.43
10060;BME280;5069;49.306;8.636;2022-12-18T16:19:41;101784.75;;;-1.80;98.23
10060;BME280;5069;49.306;8.636;2022-12-18T16:22:43;101780.78;;;-1.71;97.58
10060;BME280;5069;49.306;8.636;2022-12-18T16:25:47;101772.88;;;-1.75;97.88
10060;BME280;5069;49.306;8.636;2022-12-18T16:28:48;101761.72;;;-1.74;98.07
10060;BME280;5069;49.306;8.636;2022-12-18T16:31:50;101763.56;;;-1.72;98.22
10060;BME280;5069;49.306;8.636;2022-12-18T16:34:52;101764.88;;;-1.59;97.13
10060;BME280;5069;49.306;8.636;2022-12-18T16:37:54;101768.06;;;-1.66;97.90
10060;BME280;5069;49.306;8.636;2022-12-18T16:40:55;101754.28;;;-1.65;97.98
10060;BME280;5069;49.306;8.636;2022-12-18T16:44:15;101747.97;;;-1.73;98.17
10060;BME280;5069;49.306;8.636;2022-12-18T16:47:17;101750.56;;;-1.73;98.85
10060;BME280;5069;49.306;8.636;2022-12-18T16:50:19;101750.66;;;-1.70;98.34
10060;BME280;5069;49.306;8.636;2022-12-18T16:53:20;101745.47;;;-1.70;98.53
10060;BME280;5069;49.306;8.636;2022-12-18T16:56:22;101750.13;;;-1.61;97.71
10060;BME280;5069;49.306;8.636;2022-12-18T16:59:23;101744.19;;;-1.59;97.30
10060;BME280;5069;49.306;8.636;2022-12-18T17:02:27;101735.91;;;-1.50;96.76
10060;BME280;5069;49.306;8.636;2022-12-18T17:05:28;101743.44;;;-1.56;97.12
10060;BME280;5069;49.306;8.636;2022-12-18T17:08:30;101742.66;;;-1.54;97.03
10060;BME280;5069;49.306;8.636;2022-12-18T17:11:34;101743.53;;;-1.53;97.10
10060;BME280;5069;49.306;8.636;2022-12-18T17:14:36;101740.56;;;-1.40;95.97
10060;BME280;5069;49.306;8.636;2022-12-18T17:17:37;101735.84;;;-1.52;96.03
10060;BME280;5069;49.306;8.636;2022-12-18T17:20:38;101723.72;;;-1.53;96.61
10060;BME280;5069;49.306;8.636;2022-12-18T17:23:41;101742.69;;;-1.52;96.32
10060;BME280;5069;49.306;8.636;2022-12-18T17:26:44;101754.66;;;-1.56;96.57
10060;BME280;5069;49.306;8.636;2022-12-18T17:29:47;101756.19;;;-1.61;97.17
10060;BME280;5069;49.306;8.636;2022-12-18T17:32:49;101743.03;;;-1.67;97.90
10060;BME280;5069;49.306;8.636;2022-12-18T17:35:51;101735.13;;;-1.72;97.93
10060;BME280;5069;49.306;8.636;2022-12-18T17:38:54;101738.69;;;-1.68;97.52
10060;BME280;5069;49.306;8.636;2022-12-18T17:41:56;101741.09;;;-1.73;97.82
10060;BME280;5069;49.306;8.636;2022-12-18T17:44:57;101743.63;;;-1.74;98.77
10060;BME280;5069;49.306;8.636;2022-12-18T17:47:59;101731.81;;;-1.68;97.55
10060;BME280;5069;49.306;8.636;2022-12-18T17:51:05;101734.25;;;-1.71;98.24